sensor_id;sensor_type;location;lat;lon;timestamp;temperature;humidity
79467;SHT30;68933;49.726;9.226;2023-08-01T00:00:05;18.8;76
79467;SHT30;68933;49.726;9.226;2023-08-01T00:02:17;18.8;76
79467;SHT30;68933;49.726;9.226;2023-08-01T00:04:30;18.8;76
79467;SHT30;68933;49.726;9.226;2023-08-01T00:06:43;18.8;76
79467;SHT30;68933;49.726;9.226;2023-08-01T00:08:56;18.8;76
79467;SHT30;68933;49.726;9.226;2023-08-01T00:11:09;18.8;76
79467;SHT30;68933;49.726;9.226;2023-08-01T00:13:22;18.8;76
79467;SHT30;68933;49.726;9.226;2023-08-01T00:15:35;18.8;76
79467;SHT30;68933;49.726;9.226;2023-08-01T00:17:48;18.8;76
79467;SHT30;68933;49.726;9.226;2023-08-01T00:20:02;18.8;76
79467;SHT30;68933;49.726;9.226;2023-08-01T00:22:14;18.7;77
79467;SHT30;68933;49.726;9.226;2023-08-01T00:24:27;18.7;77
79467;SHT30;68933;49.726;9.226;2023-08-01T00:26:40;18.7;77
79467;SHT30;68933;49.726;9.226;2023-08-01T00:28:53;18.7;77
79467;SHT30;68933;49.726;9.226;2023-08-01T00:31:07;18.7;77
79467;SHT30;68933;49.726;9.226;2023-08-01T00:33:19;18.7;77
79467;SHT30;68933;49.726;9.226;2023-08-01T00:35:32;18.7;77
79467;SHT30;68933;49.726;9.226;2023-08-01T00:37:45;18.7;77
79467;SHT30;68933;49.726;9.226;2023-08-01T00:39:58;18.7;77
79467;SHT30;68933;49.726;9.226;2023-08-01T00:42:12;18.7;77
79467;SHT30;68933;49.726;9.226;2023-08-01T00:44:24;18.7;77
79467;SHT30;68933;49.726;9.226;2023-08-01T00:46:38;18.7;77
79467;SHT30;68933;49.726;9.226;2023-08-01T00:48:51;18.7;79
79467;SHT30;68933;49.726;9.226;2023-08-01T00:51:04;18.7;79
79467;SHT30;68933;49.726;9.226;2023-08-01T00:53:16;18.7;79
79467;SHT30;68933;49.726;9.226;2023-08-01T00:55:29;18.7;79
79467;SHT30;68933;49.726;9.226;2023-08-01T00:57:42;18.7;79
79467;SHT30;68933;49.726;9.226;2023-08-01T00:59:55;18.6;79
79467;SHT30;68933;49.726;9.226;2023-08-01T01:02:09;18.6;79
79467;SHT30;68933;49.726;9.226;2023-08-01T01:04:22;18.6;79
79467;SHT30;68933;49.726;9.226;2023-08-01T01:06:37;18.6;79
79467;SHT30;68933;49.726;9.226;2023-08-01T01:08:47;18.6;79
79467;SHT30;68933;49.726;9.226;2023-08-01T01:11:01;18.6;80
79467;SHT30;68933;49.726;9.226;2023-08-01T01:13:13;18.6;80
79467;SHT30;68933;49.726;9.226;2023-08-01T01:15:26;18.6;80
79467;SHT30;68933;49.726;9.226;2023-08-01T01:17:39;18.6;80
79467;SHT30;68933;49.726;9.226;2023-08-01T01:19:52;18.6;80
79467;SHT30;68933;49.726;9.226;2023-08-01T01:22:06;18.6;80
79467;SHT30;68933;49.726;9.226;2023-08-01T01:24:18;18.6;80
79467;SHT30;68933;49.726;9.226;2023-08-01T01:26:32;18.6;79
79467;SHT30;68933;49.726;9.226;2023-08-01T01:28:44;18.6;79
79467;SHT30;68933;49.726;9.226;2023-08-01T01:30:57;18.6;79
79467;SHT30;68933;49.726;9.226;2023-08-01T01:33:10;18.6;79
79467;SHT30;68933;49.726;9.226;2023-08-01T01:35:24;18.6;79
79467;SHT30;68933;49.726;9.226;2023-08-01T01:37:37;18.6;79
79467;SHT30;68933;49.726;9.226;2023-08-01T01:39:49;18.7;79
79467;SHT30;68933;49.726;9.226;2023-08-01T01:42:03;18.7;79
79467;SHT30;68933;49.726;9.226;2023-08-01T01:44:15;18.7;79
79467;SHT30;68933;49.726;9.226;2023-08-01T01:46:28;18.8;77
79467;SHT30;68933;49.726;9.226;2023-08-01T01:48:41;18.8;77
79467;SHT30;68933;49.726;9.226;2023-08-01T01:50:55;18.8;77
79467;SHT30;68933;49.726;9.226;2023-08-01T01:53:08;18.8;77
79467;SHT30;68933;49.726;9.226;2023-08-01T01:55:20;18.9;77
79467;SHT30;68933;49.726;9.226;2023-08-01T01:57:34;18.9;77
79467;SHT30;68933;49.726;9.226;2023-08-01T01:59:46;18.9;77
79467;SHT30;68933;49.726;9.226;2023-08-01T02:02:00;18.9;77
79467;SHT30;68933;49.726;9.226;2023-08-01T02:04:12;18.9;77
79467;SHT30;68933;49.726;9.226;2023-08-01T02:06:25;18.9;77
79467;SHT30;68933;49.726;9.226;2023-08-01T02:08:39;18.9;77
79467;SHT30;68933;49.726;9.226;2023-08-01T02:10:51;19;77
79467;SHT30;68933;49.726;9.226;2023-08-01T02:13:04;19;77
79467;SHT30;68933;49.726;9.226;2023-08-01T02:15:18;19;77
79467;SHT30;68933;49.726;9.226;2023-08-01T02:17:31;18.9;77
79467;SHT30;68933;49.726;9.226;2023-08-01T02:19:44;18.9;77
79467;SHT30;68933;49.726;9.226;2023-08-01T02:21:56;18.9;77
79467;SHT30;68933;49.726;9.226;2023-08-01T02:24:10;18.9;77
79467;SHT30;68933;49.726;9.226;2023-08-01T02:26:22;18.9;77
79467;SHT30;68933;49.726;9.226;2023-08-01T02:28:35;18.9;77
79467;SHT30;68933;49.726;9.226;2023-08-01T02:30:48;18.9;79
79467;SHT30;68933;49.726;9.226;2023-08-01T02:33:02;18.9;79
79467;SHT30;68933;49.726;9.226;2023-08-01T02:35:15;18.9;79
79467;SHT30;68933;49.726;9.226;2023-08-01T02:37:27;18.9;79
79467;SHT30;68933;49.726;9.226;2023-08-01T02:39:41;18.9;79
79467;SHT30;68933;49.726;9.226;2023-08-01T02:41:53;18.8;79
79467;SHT30;68933;49.726;9.226;2023-08-01T02:44:06;18.8;79
79467;SHT30;68933;49.726;9.226;2023-08-01T02:46:20;18.8;79
79467;SHT30;68933;49.726;9.226;2023-08-01T02:48:32;18.8;79
79467;SHT30;68933;49.726;9.226;2023-08-01T02:50:45;18.7;79
79467;SHT30;68933;49.726;9.226;2023-08-01T02:52:58;18.7;79
79467;SHT30;68933;49.726;9.226;2023-08-01T02:55:12;18.7;80
79467;SHT30;68933;49.726;9.226;2023-08-01T02:57:24;18.7;80
79467;SHT30;68933;49.726;9.226;2023-08-01T02:59:37;18.7;80
79467;SHT30;68933;49.726;9.226;2023-08-01T03:01:51;18.7;80
79467;SHT30;68933;49.726;9.226;2023-08-01T03:04:04;18.7;80
79467;SHT30;68933;49.726;9.226;2023-08-01T03:06:16;18.7;80
79467;SHT30;68933;49.726;9.226;2023-08-01T03:08:30;18.7;80
79467;SHT30;68933;49.726;9.226;2023-08-01T03:10:43;18.6;80
79467;SHT30;68933;49.726;9.226;2023-08-01T03:12:55;18.6;80
79467;SHT30;68933;49.726;9.226;2023-08-01T03:15:09;18.7;80
79467;SHT30;68933;49.726;9.226;2023-08-01T03:17:21;18.7;80
79467;SHT30;68933;49.726;9.226;2023-08-01T03:19:34;18.7;80
79467;SHT30;68933;49.726;9.226;2023-08-01T03:21:47;18.7;79
79467;SHT30;68933;49.726;9.226;2023-08-01T03:24:01;18.7;79
79467;SHT30;68933;49.726;9.226;2023-08-01T03:26:13;18.7;79
79467;SHT30;68933;49.726;9.226;2023-08-01T03:28:26;18.7;79
79467;SHT30;68933;49.726;9.226;2023-08-01T03:30:39;18.7;80
79467;SHT30;68933;49.726;9.226;2023-08-01T03:32:52;18.7;80
79467;SHT30;68933;49.726;9.226;2023-08-01T03:35:06;18.7;80
79467;SHT30;68933;49.726;9.226;2023-08-01T03:37:18;18.6;80
79467;SHT30;68933;49.726;9.226;2023-08-01T03:39:31;18.6;80
79467;SHT30;68933;49.726;9.226;2023-08-01T03:41:45;18.6;80
79467;SHT30;68933;49.726;9.226;2023-08-01T03:43:57;18.6;80
79467;SHT30;68933;49.726;9.226;2023-08-01T03:46:10;18.6;80
79467;SHT30;68933;49.726;9.226;2023-08-01T03:48:23;18.6;80
79467;SHT30;68933;49.726;9.226;2023-08-01T03:50:36;18.6;80
79467;SHT30;68933;49.726;9.226;2023-08-01T03:52:49;18.6;80
79467;SHT30;68933;49.726;9.226;2023-08-01T03:55:03;18.6;80
79467;SHT30;68933;49.726;9.226;2023-08-01T03:57:16;18.6;80
79467;SHT30;68933;49.726;9.226;2023-08-01T03:59:28;18.6;80
79467;SHT30;68933;49.726;9.226;2023-08-01T04:01:42;18.6;80
79467;SHT30;68933;49.726;9.226;2023-08-01T04:03:54;18.6;80
79467;SHT30;68933;49.726;9.226;2023-08-01T04:06:07;18.6;80
79467;SHT30;68933;49.726;9.226;2023-08-01T04:08:20;18.6;80
79467;SHT30;68933;49.726;9.226;2023-08-01T04:10:33;18.6;80
79467;SHT30;68933;49.726;9.226;2023-08-01T04:12:47;18.6;80
79467;SHT30;68933;49.726;9.226;2023-08-01T04:15:00;18.6;80
79467;SHT30;68933;49.726;9.226;2023-08-01T04:17:13;18.6;80
79467;SHT30;68933;49.726;9.226;2023-08-01T04:19:25;18.6;80
79467;SHT30;68933;49.726;9.226;2023-08-01T04:21:38;18.6;80
79467;SHT30;68933;49.726;9.226;2023-08-01T04:23:51;18.6;80
79467;SHT30;68933;49.726;9.226;2023-08-01T04:26:04;18.6;80
79467;SHT30;68933;49.726;9.226;2023-08-01T04:28:18;18.6;80
79467;SHT30;68933;49.726;9.226;2023-08-01T04:30:31;18.6;80
79467;SHT30;68933;49.726;9.226;2023-08-01T04:32:43;18.6;80
79467;SHT30;68933;49.726;9.226;2023-08-01T04:34:56;18.6;80
79467;SHT30;68933;49.726;9.226;2023-08-01T04:37:09;18.6;80
79467;SHT30;68933;49.726;9.226;2023-08-01T04:39:22;18.6;80
79467;SHT30;68933;49.726;9.226;2023-08-01T04:41:35;18.6;80
79467;SHT30;68933;49.726;9.226;2023-08-01T04:43:48;18.6;80
79467;SHT30;68933;49.726;9.226;2023-08-01T04:46:02;18.6;80
79467;SHT30;68933;49.726;9.226;2023-08-01T04:48:14;18.6;80
79467;SHT30;68933;49.726;9.226;2023-08-01T04:50:27;18.5;80
79467;SHT30;68933;49.726;9.226;2023-08-01T04:52:40;18.5;80
79467;SHT30;68933;49.726;9.226;2023-08-01T04:54:53;18.5;80
79467;SHT30;68933;49.726;9.226;2023-08-01T04:57:06;18.5;80
79467;SHT30;68933;49.726;9.226;2023-08-01T04:59:19;18.5;80
79467;SHT30;68933;49.726;9.226;2023-08-01T05:01:32;18.5;80
79467;SHT30;68933;49.726;9.226;2023-08-01T05:03:45;18.5;80
79467;SHT30;68933;49.726;9.226;2023-08-01T05:05:59;18.5;80
79467;SHT30;68933;49.726;9.226;2023-08-01T05:08:11;18.5;80
79467;SHT30;68933;49.726;9.226;2023-08-01T05:10:24;18.5;80
79467;SHT30;68933;49.726;9.226;2023-08-01T05:12:37;18.5;80
79467;SHT30;68933;49.726;9.226;2023-08-01T05:14:50;18.5;80
79467;SHT30;68933;49.726;9.226;2023-08-01T05:17:04;18.5;80
79467;SHT30;68933;49.726;9.226;2023-08-01T05:19:16;18.5;80
79467;SHT30;68933;49.726;9.226;2023-08-01T05:21:29;18.5;80
79467;SHT30;68933;49.726;9.226;2023-08-01T05:23:42;18.5;80
79467;SHT30;68933;49.726;9.226;2023-08-01T05:25:55;18.5;80
79467;SHT30;68933;49.726;9.226;2023-08-01T05:28:08;18.5;80
79467;SHT30;68933;49.726;9.226;2023-08-01T05:30:22;18.5;81
79467;SHT30;68933;49.726;9.226;2023-08-01T05:32:34;18.5;81
79467;SHT30;68933;49.726;9.226;2023-08-01T05:34:47;18.5;80
79467;SHT30;68933;49.726;9.226;2023-08-01T05:37:00;18.5;80
79467;SHT30;68933;49.726;9.226;2023-08-01T05:39:13;18.5;80
79467;SHT30;68933;49.726;9.226;2023-08-01T05:41:26;18.5;81
79467;SHT30;68933;49.726;9.226;2023-08-01T05:43:39;18.5;81
79467;SHT30;68933;49.726;9.226;2023-08-01T05:45:53;18.5;81
79467;SHT30;68933;49.726;9.226;2023-08-01T05:48:05;18.5;81
79467;SHT30;68933;49.726;9.226;2023-08-01T05:50:19;18.5;80
79467;SHT30;68933;49.726;9.226;2023-08-01T05:52:31;18.5;80
79467;SHT30;68933;49.726;9.226;2023-08-01T05:54:44;18.4;80
79467;SHT30;68933;49.726;9.226;2023-08-01T05:56:57;18.4;80
79467;SHT30;68933;49.726;9.226;2023-08-01T05:59:10;18.3;79
79467;SHT30;68933;49.726;9.226;2023-08-01T06:01:23;18.3;79
79467;SHT30;68933;49.726;9.226;2023-08-01T06:03:36;18.3;79
79467;SHT30;68933;49.726;9.226;2023-08-01T06:05:49;18.3;79
79467;SHT30;68933;49.726;9.226;2023-08-01T06:08:03;18.3;79
79467;SHT30;68933;49.726;9.226;2023-08-01T06:10:15;18.2;79
79467;SHT30;68933;49.726;9.226;2023-08-01T06:12:28;18.2;79
79467;SHT30;68933;49.726;9.226;2023-08-01T06:14:41;18.2;79
79467;SHT30;68933;49.726;9.226;2023-08-01T06:16:55;18.2;79
79467;SHT30;68933;49.726;9.226;2023-08-01T06:19:07;18.1;79
79467;SHT30;68933;49.726;9.226;2023-08-01T06:21:20;18.1;79
79467;SHT30;68933;49.726;9.226;2023-08-01T06:23:33;18.1;79
79467;SHT30;68933;49.726;9.226;2023-08-01T06:25:46;18.1;79
79467;SHT30;68933;49.726;9.226;2023-08-01T06:27:59;18.1;79
79467;SHT30;68933;49.726;9.226;2023-08-01T06:30:12;18.1;79
79467;SHT30;68933;49.726;9.226;2023-08-01T06:32:26;18.1;79
79467;SHT30;68933;49.726;9.226;2023-08-01T06:34:38;18.1;79
79467;SHT30;68933;49.726;9.226;2023-08-01T06:36:52;18.1;79
79467;SHT30;68933;49.726;9.226;2023-08-01T06:39:04;18.1;80
79467;SHT30;68933;49.726;9.226;2023-08-01T06:41:17;18.1;80
79467;SHT30;68933;49.726;9.226;2023-08-01T06:43:30;18.1;80
79467;SHT30;68933;49.726;9.226;2023-08-01T06:45:43;18.1;80
79467;SHT30;68933;49.726;9.226;2023-08-01T06:47:57;18.1;80
79467;SHT30;68933;49.726;9.226;2023-08-01T06:50:09;18.1;80
79467;SHT30;68933;49.726;9.226;2023-08-01T06:52:22;18.1;80
79467;SHT30;68933;49.726;9.226;2023-08-01T06:54:35;18.1;80
79467;SHT30;68933;49.726;9.226;2023-08-01T06:56:48;18.1;80
79467;SHT30;68933;49.726;9.226;2023-08-01T06:59:01;18.1;80
79467;SHT30;68933;49.726;9.226;2023-08-01T07:01:14;18.1;80
79467;SHT30;68933;49.726;9.226;2023-08-01T07:03:28;18.1;80
79467;SHT30;68933;49.726;9.226;2023-08-01T07:05:40;18.1;80
79467;SHT30;68933;49.726;9.226;2023-08-01T07:07:53;18.1;80
79467;SHT30;68933;49.726;9.226;2023-08-01T07:10:07;18.1;80
79467;SHT30;68933;49.726;9.226;2023-08-01T07:12:19;18.2;80
79467;SHT30;68933;49.726;9.226;2023-08-01T07:14:32;18.2;80
79467;SHT30;68933;49.726;9.226;2023-08-01T07:16:45;18.3;80
79467;SHT30;68933;49.726;9.226;2023-08-01T07:18:59;18.3;80
79467;SHT30;68933;49.726;9.226;2023-08-01T07:21:11;18.3;80
79467;SHT30;68933;49.726;9.226;2023-08-01T07:23:24;18.4;80
79467;SHT30;68933;49.726;9.226;2023-08-01T07:25:37;18.4;80
79467;SHT30;68933;49.726;9.226;2023-08-01T07:27:51;18.4;80
79467;SHT30;68933;49.726;9.226;2023-08-01T07:30:04;18.4;80
79467;SHT30;68933;49.726;9.226;2023-08-01T07:32:16;18.5;79
79467;SHT30;68933;49.726;9.226;2023-08-01T07:34:30;18.5;79
79467;SHT30;68933;49.726;9.226;2023-08-01T07:36:42;18.5;79
79467;SHT30;68933;49.726;9.226;2023-08-01T07:38:55;18.6;79
79467;SHT30;68933;49.726;9.226;2023-08-01T07:41:09;18.6;79
79467;SHT30;68933;49.726;9.226;2023-08-01T07:43:21;18.7;79
79467;SHT30;68933;49.726;9.226;2023-08-01T07:45:34;18.7;79
79467;SHT30;68933;49.726;9.226;2023-08-01T07:47:47;18.9;79
79467;SHT30;68933;49.726;9.226;2023-08-01T07:50:01;18.9;79
79467;SHT30;68933;49.726;9.226;2023-08-01T07:52:13;18.9;79
79467;SHT30;68933;49.726;9.226;2023-08-01T07:54:26;19;79
79467;SHT30;68933;49.726;9.226;2023-08-01T07:56:39;19;79
79467;SHT30;68933;49.726;9.226;2023-08-01T07:58:52;19.1;77
79467;SHT30;68933;49.726;9.226;2023-08-01T08:01:06;19.1;77
79467;SHT30;68933;49.726;9.226;2023-08-01T08:03:18;19.3;77
79467;SHT30;68933;49.726;9.226;2023-08-01T08:05:31;19.3;77
79467;SHT30;68933;49.726;9.226;2023-08-01T08:07:44;19.3;77
79467;SHT30;68933;49.726;9.226;2023-08-01T08:09:57;19.5;76
79467;SHT30;68933;49.726;9.226;2023-08-01T08:12:10;19.5;76
79467;SHT30;68933;49.726;9.226;2023-08-01T08:14:23;19.6;76
79467;SHT30;68933;49.726;9.226;2023-08-01T08:16:36;19.6;76
79467;SHT30;68933;49.726;9.226;2023-08-01T08:18:49;19.6;76
79467;SHT30;68933;49.726;9.226;2023-08-01T08:21:03;19.6;76
79467;SHT30;68933;49.726;9.226;2023-08-01T08:23:15;19.6;76
79467;SHT30;68933;49.726;9.226;2023-08-01T08:25:28;19.6;76
79467;SHT30;68933;49.726;9.226;2023-08-01T08:27:41;19.6;75
79467;SHT30;68933;49.726;9.226;2023-08-01T08:29:54;19.6;75
79467;SHT30;68933;49.726;9.226;2023-08-01T08:32:07;19.6;75
79467;SHT30;68933;49.726;9.226;2023-08-01T08:34:20;19.6;76
79467;SHT30;68933;49.726;9.226;2023-08-01T08:36:34;19.6;76
79467;SHT30;68933;49.726;9.226;2023-08-01T08:38:47;19.6;75
79467;SHT30;68933;49.726;9.226;2023-08-01T08:41:02;19.6;75
79467;SHT30;68933;49.726;9.226;2023-08-01T08:43:12;19.6;76
79467;SHT30;68933;49.726;9.226;2023-08-01T08:45:25;19.6;76
79467;SHT30;68933;49.726;9.226;2023-08-01T08:47:39;19.5;76
79467;SHT30;68933;49.726;9.226;2023-08-01T08:49:52;19.5;76
79467;SHT30;68933;49.726;9.226;2023-08-01T08:52:05;19.5;76
79467;SHT30;68933;49.726;9.226;2023-08-01T08:54:18;19.5;76
79467;SHT30;68933;49.726;9.226;2023-08-01T08:56:30;19.5;76
79467;SHT30;68933;49.726;9.226;2023-08-01T08:58:43;19.5;76
79467;SHT30;68933;49.726;9.226;2023-08-01T09:00:57;19.5;76
79467;SHT30;68933;49.726;9.226;2023-08-01T09:03:09;19.5;76
79467;SHT30;68933;49.726;9.226;2023-08-01T09:05:24;19.5;76
79467;SHT30;68933;49.726;9.226;2023-08-01T09:07:36;19.5;76
79467;SHT30;68933;49.726;9.226;2023-08-01T09:09:48;19.5;76
79467;SHT30;68933;49.726;9.226;2023-08-01T09:12:02;19.5;76
79467;SHT30;68933;49.726;9.226;2023-08-01T09:14:15;19.6;76
79467;SHT30;68933;49.726;9.226;2023-08-01T09:16:27;19.6;76
79467;SHT30;68933;49.726;9.226;2023-08-01T09:18:48;19.6;76
79467;SHT30;68933;49.726;9.226;2023-08-01T09:20:53;19.6;76
79467;SHT30;68933;49.726;9.226;2023-08-01T09:23:08;19.6;75
79467;SHT30;68933;49.726;9.226;2023-08-01T09:25:19;19.6;75
79467;SHT30;68933;49.726;9.226;2023-08-01T09:27:33;19.7;75
79467;SHT30;68933;49.726;9.226;2023-08-01T09:29:45;19.7;75
79467;SHT30;68933;49.726;9.226;2023-08-01T09:31:58;19.8;75
79467;SHT30;68933;49.726;9.226;2023-08-01T09:34:17;19.8;75
79467;SHT30;68933;49.726;9.226;2023-08-01T09:36:24;19.9;75
79467;SHT30;68933;49.726;9.226;2023-08-01T09:38:38;19.9;75
79467;SHT30;68933;49.726;9.226;2023-08-01T09:40:50;19.9;75
79467;SHT30;68933;49.726;9.226;2023-08-01T09:43:03;20.1;73
79467;SHT30;68933;49.726;9.226;2023-08-01T09:45:17;20.1;73
79467;SHT30;68933;49.726;9.226;2023-08-01T09:47:35;20.3;73
79467;SHT30;68933;49.726;9.226;2023-08-01T09:49:47;20.3;73
79467;SHT30;68933;49.726;9.226;2023-08-01T09:51:56;20.3;73
79467;SHT30;68933;49.726;9.226;2023-08-01T09:54:09;20.4;73
79467;SHT30;68933;49.726;9.226;2023-08-01T09:56:22;20.4;73
79467;SHT30;68933;49.726;9.226;2023-08-01T09:58:34;20.5;72
79467;SHT30;68933;49.726;9.226;2023-08-01T10:00:47;20.5;72
79467;SHT30;68933;49.726;9.226;2023-08-01T10:03:00;20.5;72
79467;SHT30;68933;49.726;9.226;2023-08-01T10:05:13;20.7;71
79467;SHT30;68933;49.726;9.226;2023-08-01T10:07:28;20.7;71
79467;SHT30;68933;49.726;9.226;2023-08-01T10:09:40;20.9;72
79467;SHT30;68933;49.726;9.226;2023-08-01T10:11:53;20.9;72
79467;SHT30;68933;49.726;9.226;2023-08-01T10:14:06;20.9;72
79467;SHT30;68933;49.726;9.226;2023-08-01T10:16:18;21;72
79467;SHT30;68933;49.726;9.226;2023-08-01T10:18:31;21;72
79467;SHT30;68933;49.726;9.226;2023-08-01T10:20:45;21.5;68
79467;SHT30;68933;49.726;9.226;2023-08-01T10:22:57;21.5;68
79467;SHT30;68933;49.726;9.226;2023-08-01T10:25:11;21.7;67
79467;SHT30;68933;49.726;9.226;2023-08-01T10:27:24;21.7;67
79467;SHT30;68933;49.726;9.226;2023-08-01T10:29:36;21.7;67
79467;SHT30;68933;49.726;9.226;2023-08-01T10:31:50;21.9;64
79467;SHT30;68933;49.726;9.226;2023-08-01T10:34:04;21.9;64
79467;SHT30;68933;49.726;9.226;2023-08-01T10:36:16;22.1;64
79467;SHT30;68933;49.726;9.226;2023-08-01T10:42:22;22.1;64
79467;SHT30;68933;49.726;9.226;2023-08-01T10:44:44;22.5;63
79467;SHT30;68933;49.726;9.226;2023-08-01T10:46:48;22.9;61
79467;SHT30;68933;49.726;9.226;2023-08-01T10:49:00;22.9;61
79467;SHT30;68933;49.726;9.226;2023-08-01T10:51:13;23;60
79467;SHT30;68933;49.726;9.226;2023-08-01T10:53:37;23;60
79467;SHT30;68933;49.726;9.226;2023-08-01T10:55:40;23.3;59
79467;SHT30;68933;49.726;9.226;2023-08-01T10:57:52;23.3;59
79467;SHT30;68933;49.726;9.226;2023-08-01T11:00:05;23.3;59
79467;SHT30;68933;49.726;9.226;2023-08-01T11:02:19;23.7;57
79467;SHT30;68933;49.726;9.226;2023-08-01T11:04:31;23.7;57
79467;SHT30;68933;49.726;9.226;2023-08-01T11:06:45;24.2;57
79467;SHT30;68933;49.726;9.226;2023-08-01T11:08:57;24.2;57
79467;SHT30;68933;49.726;9.226;2023-08-01T11:11:11;24.5;56
79467;SHT30;68933;49.726;9.226;2023-08-01T11:13:23;24.5;56
79467;SHT30;68933;49.726;9.226;2023-08-01T11:15:36;24.5;56
79467;SHT30;68933;49.726;9.226;2023-08-01T11:17:49;24.8;56
79467;SHT30;68933;49.726;9.226;2023-08-01T11:20:03;24.8;56
79467;SHT30;68933;49.726;9.226;2023-08-01T11:22:15;25.1;53
79467;SHT30;68933;49.726;9.226;2023-08-01T11:24:28;25.1;53
79467;SHT30;68933;49.726;9.226;2023-08-01T11:26:41;25.2;52
79467;SHT30;68933;49.726;9.226;2023-08-01T11:28:54;25.2;52
79467;SHT30;68933;49.726;9.226;2023-08-01T11:31:10;25.2;52
79467;SHT30;68933;49.726;9.226;2023-08-01T11:33:21;25.1;51
79467;SHT30;68933;49.726;9.226;2023-08-01T11:35:33;25.1;51
79467;SHT30;68933;49.726;9.226;2023-08-01T11:37:46;25.4;51
79467;SHT30;68933;49.726;9.226;2023-08-01T11:39:59;25.4;51
79467;SHT30;68933;49.726;9.226;2023-08-01T11:42:15;25.7;49
79467;SHT30;68933;49.726;9.226;2023-08-01T11:44:25;25.7;49
79467;SHT30;68933;49.726;9.226;2023-08-01T11:46:38;26.2;49
79467;SHT30;68933;49.726;9.226;2023-08-01T11:48:51;26.2;49
79467;SHT30;68933;49.726;9.226;2023-08-01T11:51:04;26.2;49
79467;SHT30;68933;49.726;9.226;2023-08-01T11:53:18;26.3;48
79467;SHT30;68933;49.726;9.226;2023-08-01T11:55:30;26.3;48
79467;SHT30;68933;49.726;9.226;2023-08-01T11:57:50;26.6;47
79467;SHT30;68933;49.726;9.226;2023-08-01T11:59:56;26.6;47
79467;SHT30;68933;49.726;9.226;2023-08-01T12:02:09;26.8;46
79467;SHT30;68933;49.726;9.226;2023-08-01T12:04:23;26.8;46
79467;SHT30;68933;49.726;9.226;2023-08-01T12:06:35;26.8;44
79467;SHT30;68933;49.726;9.226;2023-08-01T12:08:49;26.8;44
79467;SHT30;68933;49.726;9.226;2023-08-01T12:11:01;26.9;43
79467;SHT30;68933;49.726;9.226;2023-08-01T12:13:22;26.9;43
79467;SHT30;68933;49.726;9.226;2023-08-01T12:15:27;26.9;43
79467;SHT30;68933;49.726;9.226;2023-08-01T12:17:40;26.9;43
79467;SHT30;68933;49.726;9.226;2023-08-01T12:19:53;26.9;43
79467;SHT30;68933;49.726;9.226;2023-08-01T12:22:06;26.6;43
79467;SHT30;68933;49.726;9.226;2023-08-01T12:24:19;26.6;43
79467;SHT30;68933;49.726;9.226;2023-08-01T12:26:32;26.3;43
79467;SHT30;68933;49.726;9.226;2023-08-01T12:28:45;26.3;43
79467;SHT30;68933;49.726;9.226;2023-08-01T12:30:58;25.9;44
79467;SHT30;68933;49.726;9.226;2023-08-01T12:33:11;25.9;44
79467;SHT30;68933;49.726;9.226;2023-08-01T12:35:24;25.9;44
79467;SHT30;68933;49.726;9.226;2023-08-01T12:37:37;25.7;44
79467;SHT30;68933;49.726;9.226;2023-08-01T12:39:50;25.7;44
79467;SHT30;68933;49.726;9.226;2023-08-01T12:42:03;25.7;44
79467;SHT30;68933;49.726;9.226;2023-08-01T12:44:16;25.7;44
79467;SHT30;68933;49.726;9.226;2023-08-01T12:46:29;25.7;44
79467;SHT30;68933;49.726;9.226;2023-08-01T12:48:42;26;43
79467;SHT30;68933;49.726;9.226;2023-08-01T12:50:55;26;43
79467;SHT30;68933;49.726;9.226;2023-08-01T12:53:08;26.1;43
79467;SHT30;68933;49.726;9.226;2023-08-01T12:55:21;26.1;43
79467;SHT30;68933;49.726;9.226;2023-08-01T12:57:34;26.1;43
79467;SHT30;68933;49.726;9.226;2023-08-01T12:59:47;26.4;42
79467;SHT30;68933;49.726;9.226;2023-08-01T13:02:00;26.4;42
79467;SHT30;68933;49.726;9.226;2023-08-01T13:04:13;26.8;42
79467;SHT30;68933;49.726;9.226;2023-08-01T13:06:26;26.8;42
79467;SHT30;68933;49.726;9.226;2023-08-01T13:08:39;27.3;40
79467;SHT30;68933;49.726;9.226;2023-08-01T13:10:52;27.3;40
79467;SHT30;68933;49.726;9.226;2023-08-01T13:13:05;27.3;40
79467;SHT30;68933;49.726;9.226;2023-08-01T13:15:18;27.6;42
79467;SHT30;68933;49.726;9.226;2023-08-01T13:17:31;27.6;42
79467;SHT30;68933;49.726;9.226;2023-08-01T13:19:44;27.6;40
79467;SHT30;68933;49.726;9.226;2023-08-01T13:21:57;27.6;40
79467;SHT30;68933;49.726;9.226;2023-08-01T13:24:10;26.9;43
79467;SHT30;68933;49.726;9.226;2023-08-01T13:26:23;26.9;43
79467;SHT30;68933;49.726;9.226;2023-08-01T13:28:36;26.9;43
79467;SHT30;68933;49.726;9.226;2023-08-01T13:30:49;26.3;44
79467;SHT30;68933;49.726;9.226;2023-08-01T13:33:02;26.3;44
79467;SHT30;68933;49.726;9.226;2023-08-01T13:35:15;26.1;44
79467;SHT30;68933;49.726;9.226;2023-08-01T13:37:28;26.1;44
79467;SHT30;68933;49.726;9.226;2023-08-01T13:39:41;26.6;44
79467;SHT30;68933;49.726;9.226;2023-08-01T13:41:54;26.6;44
79467;SHT30;68933;49.726;9.226;2023-08-01T13:44:07;26.8;44
79467;SHT30;68933;49.726;9.226;2023-08-01T13:46:20;26.8;44
79467;SHT30;68933;49.726;9.226;2023-08-01T13:48:33;26.8;44
79467;SHT30;68933;49.726;9.226;2023-08-01T13:50:46;27;44
79467;SHT30;68933;49.726;9.226;2023-08-01T13:52:59;27;44
79467;SHT30;68933;49.726;9.226;2023-08-01T13:55:12;27.2;42
79467;SHT30;68933;49.726;9.226;2023-08-01T13:57:25;27.2;42
79467;SHT30;68933;49.726;9.226;2023-08-01T13:59:38;27.3;40
79467;SHT30;68933;49.726;9.226;2023-08-01T14:01:51;27.3;40
79467;SHT30;68933;49.726;9.226;2023-08-01T14:04:04;27.9;40
79467;SHT30;68933;49.726;9.226;2023-08-01T14:06:17;27.9;40
79467;SHT30;68933;49.726;9.226;2023-08-01T14:08:30;28;40
79467;SHT30;68933;49.726;9.226;2023-08-01T14:10:43;28;40
79467;SHT30;68933;49.726;9.226;2023-08-01T14:12:56;28;40
79467;SHT30;68933;49.726;9.226;2023-08-01T14:15:09;27.7;39
79467;SHT30;68933;49.726;9.226;2023-08-01T14:17:22;27.7;39
79467;SHT30;68933;49.726;9.226;2023-08-01T14:19:35;27;42
79467;SHT30;68933;49.726;9.226;2023-08-01T14:21:48;27;42
79467;SHT30;68933;49.726;9.226;2023-08-01T14:24:01;26.6;46
79467;SHT30;68933;49.726;9.226;2023-08-01T14:26:14;26.6;46
79467;SHT30;68933;49.726;9.226;2023-08-01T14:28:27;25.9;48
79467;SHT30;68933;49.726;9.226;2023-08-01T14:30:40;25.9;48
79467;SHT30;68933;49.726;9.226;2023-08-01T14:32:58;25.9;48
79467;SHT30;68933;49.726;9.226;2023-08-01T14:35:06;26;47
79467;SHT30;68933;49.726;9.226;2023-08-01T14:37:19;26;47
79467;SHT30;68933;49.726;9.226;2023-08-01T14:39:32;26.7;46
79467;SHT30;68933;49.726;9.226;2023-08-01T14:41:45;26.7;46
79467;SHT30;68933;49.726;9.226;2023-08-01T14:43:58;26.7;46
79467;SHT30;68933;49.726;9.226;2023-08-01T14:46:11;27;46
79467;SHT30;68933;49.726;9.226;2023-08-01T14:48:24;27;46
79467;SHT30;68933;49.726;9.226;2023-08-01T14:50:37;27.6;44
79467;SHT30;68933;49.726;9.226;2023-08-01T14:52:50;27.6;44
79467;SHT30;68933;49.726;9.226;2023-08-01T14:55:03;27.6;44
79467;SHT30;68933;49.726;9.226;2023-08-01T14:57:16;28;43
79467;SHT30;68933;49.726;9.226;2023-08-01T14:59:29;28;43
79467;SHT30;68933;49.726;9.226;2023-08-01T15:01:42;27.7;42